Fall Creek, Wisconsin
Current Conditions -  °F | °C
As of 5:56 PM on Friday 28 Nov 2014 (Local Time) from KEAU Reporting Station
Few Clouds Few Clouds  
Wind Chill: 17°   Ceiling: Unl
Heat Index: 23°   Visibility: 10mi
Dew Point: 15°   Wind: 5mph
Humidity: 72%   Direction: 90°E
Pressure: 29.86"   Gusts: NA
Location:  44.76°N, 91.28°W
Report Text: KEAU 282356Z 09004KT 10SM FEW120 M05/M09 A2986 RMK AO2 SLP128 60000 T10501094 11050 21078 58004
Loading
Personal Weather Stations






























Interactive Weather Map New forecast layout! Learn more

10-Day Weather Forecast

Advertisements
Track Severe Weather on mobile